Paradise Valley, Nevada Weather observations

Data are for 10 minute period ending at time listed.
 Day   Time   Solar   Ave.   Ave.  Ave.  Vector  Max.   Baro.   Total    
  of    of     Rad.   Air    Rel.  Wind   Wind   Wind  Press.  Precip.   
Year   Day            Temp.  Hum.  Speed  Dir.   Gust                    
2015   (PST)  Kw/m2    F      %     mph   deg.    mph    mb.     in.     
-------------------------------------------------------------------------
  31    2:50   0.00  -15.6   186    3.6   338     4.9   867.9    0.00 
  31    3:00   0.00  -16.0   186    5.0   330     6.5   868.0    0.00 
  31    3:10   0.00  -16.6   186    6.0   321     7.5   868.1    0.00 
  31    3:20   0.00  -17.6   186    7.0   324     8.8   868.1    0.00 
  31    3:30   0.00  -18.5   184    6.8   322     8.6   868.2    0.00 
  31    3:40   0.00  -19.3   184    6.8   330     8.6   868.3    0.00 
  31    3:50   0.00  -19.8   184    6.0   331     8.6   868.3    0.00 
  31    4:00   0.00  -20.9   184    6.1   331     8.5   868.4    0.00 
  31    4:10   0.00  -19.6   186    6.2   335     7.3   868.5    0.00 
  31    4:20   0.00  -19.5   185    6.7   325     8.7   868.5    0.00 
  31    4:30   0.00  -19.3   185    7.1   326     8.8   868.5    0.00 
  31    4:40   0.00  -19.5   185    7.6   326     9.9   868.4    0.00 
  31    4:50   0.00  -19.1   186    5.7   320     7.8   868.2    0.00 
  31    5:00   0.00  -20.6   186    5.7   340     7.3   868.2    0.00 
  31    5:10   0.00  -19.5   187    4.9   334     8.3   868.1    0.00 
  31    5:20   0.00  -18.4   186    5.3   339     6.4   868.4    0.00 
  31    5:30   0.00  -18.5   186    4.1   344     6.1   868.6    0.00 
  31    5:40   0.00  -17.1   186    3.8   338     5.0   868.7    0.00 
  31    5:50   0.00  -16.8   186    3.7   333     4.9   868.7    0.00 
  31    6:00   0.00  -15.8   185    3.2   275     4.3   868.6    0.00 
  31    6:10   0.00  -14.0   186    4.0   279     5.0   868.5    0.00 
  31    6:20   0.00  -14.4   186    3.9   278     5.1   868.6    0.00 
  31    6:30   0.00  -12.7   188    4.3   297     5.2   868.6    0.00 
  31    6:40   0.00  -14.9   186    4.0   317     5.0   868.7    0.00 
  31    6:50   0.00  -15.8   186    3.4   333     3.9   868.9    0.00 
  31    7:00   0.00  -15.6   185    3.2   343     3.8   869.1    0.00 
  31    7:10   0.01  -14.5   185    3.0   333     4.5   869.2    0.00 
  31    7:20   0.03  -14.5   186    3.4   329     4.3   869.3    0.00 
  31    7:30   0.06   -9.3   189    3.3   332     4.2   869.3    0.00 
  31    7:40   0.09   -4.6   194    3.0   326     3.8   869.3    0.00 
  31    7:50   0.11   -3.9   194    3.4   336     4.8   869.4    0.00 
  31    8:00   0.13   -2.8   194    3.6   354     4.6   869.4    0.00 
  31    8:10   0.16   -0.6   193    2.8   336     3.9   869.6    0.00 
  31    8:20   0.19    1.7   193    3.4   337     5.1   869.7    0.00 
  31    8:30   0.22    4.1   193    3.9   349     5.3   869.8    0.00 
  31    8:40   0.25    6.4   193    5.1   350     7.3   869.9    0.00 
  31    8:50   0.28    7.4   192    6.6   354     8.3   870.0    0.00 
  31    9:00   0.30    8.0   192    6.0   355     8.3   870.1    0.00 
  31    9:10   0.33    9.1   191    5.5   346     7.3   870.2    0.00 
  31    9:20   0.36   10.2   191    5.6   352     6.9   870.3    0.00 
  31    9:30   0.39   11.0   191    5.6   354     7.2   870.4    0.00 
  31    9:40   0.41   12.4   192    5.5   354     7.2   870.5    0.00 
  31    9:50   0.43   13.2   190    4.7   357     6.6   870.5    0.00 
  31   10:00   0.46   15.2   194    4.1   353     6.1   870.7    0.00 
  31   10:10   0.48   15.9   190    3.6   350     5.4   870.6    0.00 
  31   10:20   0.49   17.3   192    3.0     4     5.6   870.7    0.00 
  31   10:30   0.51   19.0   193    2.6     5     4.5   870.7    0.00 
  31   10:40   0.53   20.1   192    1.7    14     4.2   870.7    0.00 
  31   10:50   0.54   21.5   193    2.5    10     4.9   870.6    0.00 
  31   11:00   0.56   22.1   192    3.2    39     5.6   870.6    0.00 
  31   11:10   0.57   23.1   192    2.8    69     5.3   870.6    0.00 
  31   11:20   0.58   23.6   192    2.5    51     4.8   870.5    0.00 
  31   11:30   0.58   23.4   191    1.7   354     5.0   870.3    0.00 
  31   11:40   0.59   23.7   190    1.8   130     4.7   870.1    0.00 
  31   11:50   0.60   24.2   190    2.3   192     6.7   870.1    0.00 
  31   12:00   0.60   23.7   188    1.2   256     3.1   870.1    0.00 
  31   12:10   0.60   24.6   189    0.5   229     2.0   869.9    0.00 
  31   12:20   0.60   26.0   190    2.0   128     3.5   869.6    0.00 
  31   12:30   0.59   26.4   191    2.8   142     5.9   869.6    0.00 
  31   12:40   0.59   26.8   192    3.2   124     5.6   869.4    0.00 
  31   12:50   0.58   26.6   192    2.4   126     5.1   869.4    0.00 
  31   13:00   0.57   25.6   190    2.7   214     6.1   869.3    0.00 
  31   13:10   0.56   26.3   190    3.1   169     5.8   869.2    0.00 
  31   13:20   0.55   26.9   191    2.9   153     6.2   869.2    0.00 
  31   13:30   0.54   27.2   189    1.9   162     6.4   869.1    0.00 
  31   13:40   0.53   27.2   187    3.3   183     6.5   869.0    0.00 
  31   13:50   0.51   27.1   185    3.6   160     6.9   868.9    0.00 
  31   14:00   0.49   27.2   184    4.2   175     7.6   868.8    0.00 
  31   14:10   0.47   28.9   186    4.2   164     7.2   868.8    0.00 
  31   14:20   0.45   29.6   186    2.3   137     5.2   869.0    0.00 
  31   14:30   0.43   31.4   188    2.4   114     6.1   869.2    0.00 
  31   14:40   0.40   31.8   187    2.9    57     6.5   869.2    0.00 
  31   14:50   0.38   31.5   184    3.9    45     6.9   869.2    0.00 
  31   15:00   0.35   31.2   184    3.9    89     6.9   869.0    0.00 
  31   15:10   0.32   32.3   185    3.2    83     5.4   869.0    0.00 
  31   15:20   0.30   31.5   184    1.8    51     3.1   869.1    0.00 
  31   15:30   0.26   32.2   185    2.6    35     4.7   869.2    0.00 
  31   15:40   0.22   31.0   181    1.7    50     3.9   869.0    0.00 
  31   15:50   0.20   31.1   182    1.5    87     3.2   869.1    0.00 
  31   16:00   0.18   31.0   184    1.0   119     2.4   869.1    0.00 
  31   16:10   0.15   30.9   185    0.8   180     1.8   869.1    0.00 
  31   16:20   0.12   30.9   187    0.6   211     1.3   869.1    0.00 
  31   16:30   0.08   30.6   188    1.4   212     2.0   869.2    0.00 
  31   16:40   0.04   29.0   189    2.2   197     2.5   869.1    0.00 
  31   16:50   0.04   26.9   190    2.6   169     3.0   869.1    0.00 
  31   17:00   0.01   19.1   189    2.4   161     3.0   869.1    0.00 
  31   17:10   0.01   13.8   190    3.4   219     5.1   869.2    0.00 
  31   17:20   0.00    7.8   190    5.1   244     6.0   869.3    0.00 
  31   17:30   0.00    2.0   190    5.5   247     6.2   869.3    0.00 
  31   17:40   0.00   -2.9   190    6.2   252     7.4   869.4    0.00 
  31   17:50   0.00   -7.0   189    5.3   259     7.2   869.7    0.00 
  31   18:00   0.00  -11.0   188    3.4   258     4.5   870.0    0.00 
  31   18:10   0.00  -11.8   187    3.3   277     4.6   870.1    0.00 
  31   18:20   0.00  -13.0   188    3.6   281     5.0   870.2    0.00 
  31   18:30   0.00  -12.7   188    2.1   353     3.5   870.4    0.00 
  31   18:40   0.00   -7.5   188    0.2    19     1.2   870.4    0.00 
  31   18:50   0.00  -14.6   187    0.3    17     0.9   870.5    0.00 
  31   19:00   0.00  -18.4   186    0.2   220     1.4   870.5    0.00 
  31   19:10   0.00  -12.9   187    5.2   149     7.7   870.3    0.00 
  31   19:20   0.00   -8.5   187    5.2   168     6.8   870.2    0.00 
  31   19:30   0.00   -9.9   186    5.6   213     7.6   870.2    0.00 
  31   19:40   0.00  -12.3   188    5.7   226     8.5   870.3    0.00 
  31   19:50   0.00  -12.2   187    3.0   233     5.4   870.2    0.00 
  31   20:00   0.00  -14.1   187    5.9   227     8.5   870.3    0.00 
  31   20:10   0.00  -15.9   187    6.0   246     8.3   870.3    0.00 
  31   20:20   0.00  -13.7   189    4.2   260     5.1   870.3    0.00 
  31   20:30   0.00  -13.0   191    4.2   257     5.5   870.2    0.00 
  31   20:40   0.00  -13.1   189    2.9   280     5.3   870.3    0.00 
  31   20:50   0.00  -14.0   189    2.6    25     6.1   870.5    0.00 
  31   21:00   0.00  -14.7   187    2.3    46     4.2   870.6    0.00 
  31   21:10   0.00  -11.1   187    1.7   112     3.4   870.6    0.00 
  31   21:20   0.00   -8.2   186    2.4   128     3.7   870.8    0.00 
  31   21:30   0.00   -5.7   187    1.1   145     2.6   870.9    0.00 
  31   21:40   0.00   -6.9   187    3.2   307     4.2   871.0    0.00 
  31   21:50   0.00  -10.4   187    3.6   312     5.2   871.1    0.00 
  31   22:00   0.00  -12.3   186    5.6   287     7.0   871.2    0.00 
  31   22:10   0.00  -13.0   187    4.7   284     5.9   871.2    0.00 
  31   22:20   0.00  -12.6   187    4.4   284     5.8   871.1    0.00 
  31   22:30   0.00  -11.8   186    3.6   256     5.1   871.2    0.00 
  31   22:40   0.00  -11.6   186    0.3   353     2.3   871.2    0.00 
  31   22:50   0.00  -12.2   185    0.0    52     0.9   871.2    0.00 
  31   23:00   0.00  -14.0   184    2.8   160     4.2   871.0    0.00 
  31   23:10   0.00  -12.0   185    1.6   183     3.9   871.2    0.00 
  31   23:20   0.00  -11.1   187    2.8   255     4.6   871.3    0.00 
  31   23:30   0.00  -10.4   186    2.3   256     3.1   871.4    0.00 
  31   23:40   0.00   -9.8   184    2.6   239     3.6   871.5    0.00 
  31   23:50   0.00   -9.7   186    3.6   237     4.5   871.6    0.00 
  32    0:00   0.00  -11.3   186    3.1   225     4.1   871.6    0.00 
  32    0:10   0.00  -12.6   186    3.4   183     5.0   871.4    0.00 
  32    0:20   0.00  -12.7   184    3.8   173     4.7   871.3    0.00 
  32    0:30   0.00  -13.2   184    4.5   201     5.3   871.3    0.00 
  32    0:40   0.00  -12.0   185    4.0   225     4.5   871.3    0.00 
  32    0:50   0.00  -11.9   184    3.6   191     4.7   871.3    0.00 
  32    1:00   0.00  -11.6   184    0.6   183     1.9   871.2    0.00 
  32    1:10   0.00   -9.7   183    2.0   254     3.4   871.1    0.00 
  32    1:20   0.00   -9.8   182    1.1   272     3.4   871.2    0.00 
  32    1:30   0.00   -7.8   184    2.0   290     3.8   871.1    0.00 
  32    1:40   0.00   -7.3   183    1.8   331     4.7   871.1    0.00 
  32    1:50   0.00   -7.7   184    3.9   331     5.2   871.0    0.00 
  32    2:00   0.00   -7.7   184    2.6   311     3.7   871.2    0.00 
  32    2:10   0.00   -5.6   182    2.9   312     4.6   871.2    0.00 
  32    2:20   0.00   -7.9   185    1.6   312     4.3   871.3    0.00 
  32    2:30   0.00   -8.0   182    0.7   308     2.8   871.2    0.00 
  32    2:40   0.00   -8.7   184    2.1   144     3.2   870.9    0.00 

Return to Paradise Valley graphs page.


Western Regional Climate Center,wrcc@dri.edu